CheckWX is a tool to help pilots better visualize weather data.  It is not intended as a substitute for an official pre-flight weather briefing.

08:13:54 UTC

GVAC METAR
Amílcar Cabral International Airport
Espargos, Cape Verde
Current

1 hour ago

GVAC 220700Z 06007KT 9999 FEW014 SCT200 19/16 Q1017 NOSIG
Observed
Feb-22 @ 07:00 UTC
Wind
  • 060° at 7 KTS
Visibility
10,000+ meters
Flight Rules
VFR
Cloud Levels
  • Few at 1,400' AGL
  • Scattered at 20,000' AGL
Temperature
19°C / 66°F
Dewpoint
16°C / 61°F
Humidity
83%
Altimeter
30.03" Hg
Pressure
1016.92 hPa
Previous

2 hours ago

GVAC 220600Z 06008KT CAVOK 20/17 Q1017 NOSIG
Observed
Feb-22 @ 06:00 UTC
Wind
  • 060° at 8 KTS
Visibility
10,000+ meters
Flight Rules
VFR
Cloud Levels
  • Clear skies
Temperature
20°C / 68°F
Dewpoint
17°C / 63°F
Humidity
83%
Altimeter
30.03" Hg
Pressure
1016.92 hPa
Previous

3 hours ago

GVAC 220500Z 06009KT CAVOK 20/16 Q1016 NOSIG
Observed
Feb-22 @ 05:00 UTC
Wind
  • 060° at 9 KTS
Visibility
10,000+ meters
Flight Rules
VFR
Cloud Levels
  • Clear skies
Temperature
20°C / 68°F
Dewpoint
16°C / 61°F
Humidity
78%
Altimeter
30" Hg
Pressure
1015.92 hPa